sensor_id;sensor_type;location;lat;lon;timestamp;temperature;humidity
6822;DHT22;3449;48.728;8.968;2023-06-01T00:01:44;14.20;99.90
6822;DHT22;3449;48.728;8.968;2023-06-01T00:04:12;14.10;99.90
6822;DHT22;3449;48.728;8.968;2023-06-01T00:06:39;14.00;99.90
6822;DHT22;3449;48.728;8.968;2023-06-01T00:09:06;13.90;99.90
6822;DHT22;3449;48.728;8.968;2023-06-01T00:11:35;13.90;99.90
6822;DHT22;3449;48.728;8.968;2023-06-01T00:14:02;13.90;99.90
6822;DHT22;3449;48.728;8.968;2023-06-01T00:16:29;13.80;99.90
6822;DHT22;3449;48.728;8.968;2023-06-01T00:18:56;13.80;99.90
6822;DHT22;3449;48.728;8.968;2023-06-01T00:21:26;13.80;99.90
6822;DHT22;3449;48.728;8.968;2023-06-01T00:23:53;13.80;99.90
6822;DHT22;3449;48.728;8.968;2023-06-01T00:26:20;13.70;99.90
6822;DHT22;3449;48.728;8.968;2023-06-01T00:28:49;13.70;99.90
6822;DHT22;3449;48.728;8.968;2023-06-01T00:31:15;13.60;99.90
6822;DHT22;3449;48.728;8.968;2023-06-01T00:33:42;13.50;99.90
6822;DHT22;3449;48.728;8.968;2023-06-01T00:36:09;13.50;99.90
6822;DHT22;3449;48.728;8.968;2023-06-01T00:38:36;13.40;99.90
6822;DHT22;3449;48.728;8.968;2023-06-01T00:41:03;13.40;99.90
6822;DHT22;3449;48.728;8.968;2023-06-01T00:43:30;13.30;99.90
6822;DHT22;3449;48.728;8.968;2023-06-01T00:45:58;13.30;99.90
6822;DHT22;3449;48.728;8.968;2023-06-01T00:48:25;13.30;99.90
6822;DHT22;3449;48.728;8.968;2023-06-01T00:50:52;13.30;99.90
6822;DHT22;3449;48.728;8.968;2023-06-01T00:53:20;13.30;99.90
6822;DHT22;3449;48.728;8.968;2023-06-01T00:55:47;13.30;99.90
6822;DHT22;3449;48.728;8.968;2023-06-01T00:58:15;13.20;99.90
6822;DHT22;3449;48.728;8.968;2023-06-01T01:00:42;13.20;99.90
6822;DHT22;3449;48.728;8.968;2023-06-01T01:03:10;13.20;99.90
6822;DHT22;3449;48.728;8.968;2023-06-01T01:05:39;13.20;99.90
6822;DHT22;3449;48.728;8.968;2023-06-01T01:08:12;13.20;99.90
6822;DHT22;3449;48.728;8.968;2023-06-01T01:10:43;13.20;99.90
6822;DHT22;3449;48.728;8.968;2023-06-01T01:13:17;13.20;99.90
6822;DHT22;3449;48.728;8.968;2023-06-01T01:15:53;13.20;99.90
6822;DHT22;3449;48.728;8.968;2023-06-01T01:18:27;13.20;99.90
6822;DHT22;3449;48.728;8.968;2023-06-01T01:21:00;13.20;99.90
6822;DHT22;3449;48.728;8.968;2023-06-01T01:23:53;13.30;99.90
6822;DHT22;3449;48.728;8.968;2023-06-01T01:26:35;13.30;99.90
6822;DHT22;3449;48.728;8.968;2023-06-01T01:29:10;13.30;99.90
6822;DHT22;3449;48.728;8.968;2023-06-01T01:31:38;13.20;99.90
6822;DHT22;3449;48.728;8.968;2023-06-01T01:34:08;13.10;99.90
6822;DHT22;3449;48.728;8.968;2023-06-01T01:36:35;13.10;99.90
6822;DHT22;3449;48.728;8.968;2023-06-01T01:39:02;13.10;99.90
6822;DHT22;3449;48.728;8.968;2023-06-01T01:41:29;13.00;99.90
6822;DHT22;3449;48.728;8.968;2023-06-01T01:43:56;13.00;99.90
6822;DHT22;3449;48.728;8.968;2023-06-01T01:46:27;13.00;99.90
6822;DHT22;3449;48.728;8.968;2023-06-01T01:49:00;12.90;99.90
6822;DHT22;3449;48.728;8.968;2023-06-01T01:51:35;12.90;99.90
6822;DHT22;3449;48.728;8.968;2023-06-01T01:54:04;12.80;99.90
6822;DHT22;3449;48.728;8.968;2023-06-01T01:56:32;12.80;99.90
6822;DHT22;3449;48.728;8.968;2023-06-01T01:59:01;12.70;99.90
6822;DHT22;3449;48.728;8.968;2023-06-01T02:01:30;12.70;99.90
6822;DHT22;3449;48.728;8.968;2023-06-01T02:03:59;12.60;99.90
6822;DHT22;3449;48.728;8.968;2023-06-01T02:06:26;12.60;99.90
6822;DHT22;3449;48.728;8.968;2023-06-01T02:08:53;12.70;99.90
6822;DHT22;3449;48.728;8.968;2023-06-01T02:11:20;12.70;99.90
6822;DHT22;3449;48.728;8.968;2023-06-01T02:13:47;12.70;99.90
6822;DHT22;3449;48.728;8.968;2023-06-01T02:16:14;12.70;99.90
6822;DHT22;3449;48.728;8.968;2023-06-01T02:18:44;12.60;99.90
6822;DHT22;3449;48.728;8.968;2023-06-01T02:21:12;12.60;99.90
6822;DHT22;3449;48.728;8.968;2023-06-01T02:23:39;12.50;99.90
6822;DHT22;3449;48.728;8.968;2023-06-01T02:26:06;12.40;99.90
6822;DHT22;3449;48.728;8.968;2023-06-01T02:28:33;12.30;99.90
6822;DHT22;3449;48.728;8.968;2023-06-01T02:31:00;12.20;99.90
6822;DHT22;3449;48.728;8.968;2023-06-01T02:33:27;12.10;99.90
6822;DHT22;3449;48.728;8.968;2023-06-01T02:35:55;12.20;99.90
6822;DHT22;3449;48.728;8.968;2023-06-01T02:38:22;12.20;99.90
6822;DHT22;3449;48.728;8.968;2023-06-01T02:40:49;12.20;99.90
6822;DHT22;3449;48.728;8.968;2023-06-01T02:43:16;12.20;99.90
6822;DHT22;3449;48.728;8.968;2023-06-01T02:45:43;12.10;99.90
6822;DHT22;3449;48.728;8.968;2023-06-01T02:48:10;12.10;99.90
6822;DHT22;3449;48.728;8.968;2023-06-01T02:50:38;12.10;99.90
6822;DHT22;3449;48.728;8.968;2023-06-01T02:53:06;12.00;99.90
6822;DHT22;3449;48.728;8.968;2023-06-01T02:55:33;12.00;99.90
6822;DHT22;3449;48.728;8.968;2023-06-01T02:58:00;12.00;99.90
6822;DHT22;3449;48.728;8.968;2023-06-01T03:00:27;12.00;99.90
6822;DHT22;3449;48.728;8.968;2023-06-01T03:02:54;11.90;99.90
6822;DHT22;3449;48.728;8.968;2023-06-01T03:05:21;11.90;99.90
6822;DHT22;3449;48.728;8.968;2023-06-01T03:07:48;11.80;99.90
6822;DHT22;3449;48.728;8.968;2023-06-01T03:10:16;11.80;99.90
6822;DHT22;3449;48.728;8.968;2023-06-01T03:12:43;11.70;99.90
6822;DHT22;3449;48.728;8.968;2023-06-01T03:15:10;11.60;99.90
6822;DHT22;3449;48.728;8.968;2023-06-01T03:17:37;11.60;99.90
6822;DHT22;3449;48.728;8.968;2023-06-01T03:20:05;11.60;99.90
6822;DHT22;3449;48.728;8.968;2023-06-01T03:22:40;11.50;99.90
6822;DHT22;3449;48.728;8.968;2023-06-01T03:25:08;11.50;99.90
6822;DHT22;3449;48.728;8.968;2023-06-01T03:27:36;11.50;99.90
6822;DHT22;3449;48.728;8.968;2023-06-01T03:30:04;11.50;99.90
6822;DHT22;3449;48.728;8.968;2023-06-01T03:32:35;11.40;99.90
6822;DHT22;3449;48.728;8.968;2023-06-01T03:35:03;11.40;99.90
6822;DHT22;3449;48.728;8.968;2023-06-01T03:37:30;11.40;99.90
6822;DHT22;3449;48.728;8.968;2023-06-01T03:39:57;11.30;99.90
6822;DHT22;3449;48.728;8.968;2023-06-01T03:42:24;11.30;99.90
6822;DHT22;3449;48.728;8.968;2023-06-01T03:44:52;11.20;99.90
6822;DHT22;3449;48.728;8.968;2023-06-01T03:47:19;11.30;99.90
6822;DHT22;3449;48.728;8.968;2023-06-01T03:49:46;11.30;99.90
6822;DHT22;3449;48.728;8.968;2023-06-01T03:52:13;11.30;99.90
6822;DHT22;3449;48.728;8.968;2023-06-01T03:54:42;11.30;99.90
6822;DHT22;3449;48.728;8.968;2023-06-01T03:57:09;11.30;99.90
6822;DHT22;3449;48.728;8.968;2023-06-01T03:59:36;11.30;99.90
6822;DHT22;3449;48.728;8.968;2023-06-01T04:02:04;11.30;99.90
6822;DHT22;3449;48.728;8.968;2023-06-01T04:04:33;11.30;99.90
6822;DHT22;3449;48.728;8.968;2023-06-01T04:07:01;11.20;99.90
6822;DHT22;3449;48.728;8.968;2023-06-01T04:09:28;11.20;99.90
6822;DHT22;3449;48.728;8.968;2023-06-01T04:11:55;11.30;99.90
6822;DHT22;3449;48.728;8.968;2023-06-01T04:14:22;11.20;99.90
6822;DHT22;3449;48.728;8.968;2023-06-01T04:16:49;11.20;99.90
6822;DHT22;3449;48.728;8.968;2023-06-01T04:19:17;11.20;99.90
6822;DHT22;3449;48.728;8.968;2023-06-01T04:21:44;11.30;99.90
6822;DHT22;3449;48.728;8.968;2023-06-01T04:24:11;11.30;99.90
6822;DHT22;3449;48.728;8.968;2023-06-01T04:26:38;11.40;99.90
6822;DHT22;3449;48.728;8.968;2023-06-01T04:29:05;11.40;99.90
6822;DHT22;3449;48.728;8.968;2023-06-01T04:31:34;11.50;99.90
6822;DHT22;3449;48.728;8.968;2023-06-01T04:34:01;11.60;99.90
6822;DHT22;3449;48.728;8.968;2023-06-01T04:36:29;11.70;99.90
6822;DHT22;3449;48.728;8.968;2023-06-01T04:38:56;11.70;99.90
6822;DHT22;3449;48.728;8.968;2023-06-01T04:41:24;11.80;99.90
6822;DHT22;3449;48.728;8.968;2023-06-01T04:43:52;11.90;99.90
6822;DHT22;3449;48.728;8.968;2023-06-01T04:46:20;12.10;99.90
6822;DHT22;3449;48.728;8.968;2023-06-01T04:48:49;12.10;99.90
6822;DHT22;3449;48.728;8.968;2023-06-01T04:51:17;12.20;99.90
6822;DHT22;3449;48.728;8.968;2023-06-01T04:53:47;12.30;99.90
6822;DHT22;3449;48.728;8.968;2023-06-01T04:56:17;12.50;99.90
6822;DHT22;3449;48.728;8.968;2023-06-01T04:58:45;12.60;99.90
6822;DHT22;3449;48.728;8.968;2023-06-01T05:01:13;12.70;99.90
6822;DHT22;3449;48.728;8.968;2023-06-01T05:03:41;12.80;99.90
6822;DHT22;3449;48.728;8.968;2023-06-01T05:06:09;13.00;99.90
6822;DHT22;3449;48.728;8.968;2023-06-01T05:08:37;13.10;99.90
6822;DHT22;3449;48.728;8.968;2023-06-01T05:11:06;13.30;99.90
6822;DHT22;3449;48.728;8.968;2023-06-01T05:13:34;13.40;99.90
6822;DHT22;3449;48.728;8.968;2023-06-01T05:16:01;13.50;99.90
6822;DHT22;3449;48.728;8.968;2023-06-01T05:18:28;13.70;99.90
6822;DHT22;3449;48.728;8.968;2023-06-01T05:20:55;13.80;99.90
6822;DHT22;3449;48.728;8.968;2023-06-01T05:23:23;13.90;99.90
6822;DHT22;3449;48.728;8.968;2023-06-01T05:25:51;14.00;99.90
6822;DHT22;3449;48.728;8.968;2023-06-01T05:28:19;14.10;99.90
6822;DHT22;3449;48.728;8.968;2023-06-01T05:30:47;14.30;99.90
6822;DHT22;3449;48.728;8.968;2023-06-01T05:33:13;14.40;99.90
6822;DHT22;3449;48.728;8.968;2023-06-01T05:35:40;14.60;99.90
6822;DHT22;3449;48.728;8.968;2023-06-01T05:38:07;14.80;99.90
6822;DHT22;3449;48.728;8.968;2023-06-01T05:40:34;14.90;99.90
6822;DHT22;3449;48.728;8.968;2023-06-01T05:43:01;15.10;99.90
6822;DHT22;3449;48.728;8.968;2023-06-01T05:45:30;15.30;99.90
6822;DHT22;3449;48.728;8.968;2023-06-01T05:47:57;15.50;99.90
6822;DHT22;3449;48.728;8.968;2023-06-01T05:50:23;15.60;99.90
6822;DHT22;3449;48.728;8.968;2023-06-01T05:52:51;15.80;99.90
6822;DHT22;3449;48.728;8.968;2023-06-01T05:55:19;15.80;99.90
6822;DHT22;3449;48.728;8.968;2023-06-01T05:57:45;15.90;99.90
6822;DHT22;3449;48.728;8.968;2023-06-01T06:00:13;16.00;99.90
6822;DHT22;3449;48.728;8.968;2023-06-01T06:02:42;16.20;99.90
6822;DHT22;3449;48.728;8.968;2023-06-01T06:05:09;16.40;99.90
6822;DHT22;3449;48.728;8.968;2023-06-01T06:07:37;16.60;99.90
6822;DHT22;3449;48.728;8.968;2023-06-01T06:10:04;16.80;99.90
6822;DHT22;3449;48.728;8.968;2023-06-01T06:12:32;17.00;99.90
6822;DHT22;3449;48.728;8.968;2023-06-01T06:14:59;17.10;99.90
6822;DHT22;3449;48.728;8.968;2023-06-01T06:17:26;17.30;99.90
6822;DHT22;3449;48.728;8.968;2023-06-01T06:19:54;17.40;99.90
6822;DHT22;3449;48.728;8.968;2023-06-01T06:22:21;17.50;99.90
6822;DHT22;3449;48.728;8.968;2023-06-01T06:24:47;17.50;99.90
6822;DHT22;3449;48.728;8.968;2023-06-01T06:27:15;17.70;99.90
6822;DHT22;3449;48.728;8.968;2023-06-01T06:29:42;17.80;99.90
6822;DHT22;3449;48.728;8.968;2023-06-01T06:32:09;17.80;99.90
6822;DHT22;3449;48.728;8.968;2023-06-01T06:34:36;17.90;99.90
6822;DHT22;3449;48.728;8.968;2023-06-01T06:37:05;18.00;99.90
6822;DHT22;3449;48.728;8.968;2023-06-01T06:39:33;18.20;99.90
6822;DHT22;3449;48.728;8.968;2023-06-01T06:42:00;18.40;99.90
6822;DHT22;3449;48.728;8.968;2023-06-01T06:44:27;18.50;99.90
6822;DHT22;3449;48.728;8.968;2023-06-01T06:46:54;18.70;99.90
6822;DHT22;3449;48.728;8.968;2023-06-01T06:49:21;18.80;99.90
6822;DHT22;3449;48.728;8.968;2023-06-01T06:51:48;18.90;99.90
6822;DHT22;3449;48.728;8.968;2023-06-01T06:54:16;19.10;99.90
6822;DHT22;3449;48.728;8.968;2023-06-01T06:56:43;19.10;99.90
6822;DHT22;3449;48.728;8.968;2023-06-01T06:59:11;19.20;99.90
6822;DHT22;3449;48.728;8.968;2023-06-01T07:01:39;19.30;99.90
6822;DHT22;3449;48.728;8.968;2023-06-01T07:04:07;19.40;99.90
6822;DHT22;3449;48.728;8.968;2023-06-01T07:06:34;19.60;99.90
6822;DHT22;3449;48.728;8.968;2023-06-01T07:09:01;19.70;99.90
6822;DHT22;3449;48.728;8.968;2023-06-01T07:11:29;19.90;99.90
6822;DHT22;3449;48.728;8.968;2023-06-01T07:13:56;20.20;99.90
6822;DHT22;3449;48.728;8.968;2023-06-01T07:16:23;20.30;99.90
6822;DHT22;3449;48.728;8.968;2023-06-01T07:18:51;20.10;99.90
6822;DHT22;3449;48.728;8.968;2023-06-01T07:21:18;20.10;99.90
6822;DHT22;3449;48.728;8.968;2023-06-01T07:23:45;20.40;99.90
6822;DHT22;3449;48.728;8.968;2023-06-01T07:26:12;20.50;99.90
6822;DHT22;3449;48.728;8.968;2023-06-01T07:28:41;20.70;99.90
6822;DHT22;3449;48.728;8.968;2023-06-01T07:31:08;20.80;99.90
6822;DHT22;3449;48.728;8.968;2023-06-01T07:33:35;20.80;99.90
6822;DHT22;3449;48.728;8.968;2023-06-01T07:36:03;20.90;99.90
6822;DHT22;3449;48.728;8.968;2023-06-01T07:38:30;21.10;99.90
6822;DHT22;3449;48.728;8.968;2023-06-01T07:40:58;21.10;99.90
6822;DHT22;3449;48.728;8.968;2023-06-01T07:43:25;21.40;99.90
6822;DHT22;3449;48.728;8.968;2023-06-01T07:45:54;21.70;99.90
6822;DHT22;3449;48.728;8.968;2023-06-01T07:48:23;21.90;99.90
6822;DHT22;3449;48.728;8.968;2023-06-01T07:50:49;21.80;99.90
6822;DHT22;3449;48.728;8.968;2023-06-01T07:53:17;22.00;99.90
6822;DHT22;3449;48.728;8.968;2023-06-01T07:55:45;22.10;99.90
6822;DHT22;3449;48.728;8.968;2023-06-01T07:58:14;21.80;99.90
6822;DHT22;3449;48.728;8.968;2023-06-01T08:00:41;21.90;99.90
6822;DHT22;3449;48.728;8.968;2023-06-01T08:03:09;22.20;99.90
6822;DHT22;3449;48.728;8.968;2023-06-01T08:05:37;22.40;99.90
6822;DHT22;3449;48.728;8.968;2023-06-01T08:08:04;22.70;99.90
6822;DHT22;3449;48.728;8.968;2023-06-01T08:10:31;23.00;99.90
6822;DHT22;3449;48.728;8.968;2023-06-01T08:12:58;23.10;99.90
6822;DHT22;3449;48.728;8.968;2023-06-01T08:15:25;23.30;99.90
6822;DHT22;3449;48.728;8.968;2023-06-01T08:17:53;23.20;99.90
6822;DHT22;3449;48.728;8.968;2023-06-01T08:20:22;23.40;99.90
6822;DHT22;3449;48.728;8.968;2023-06-01T08:22:49;23.70;99.90
6822;DHT22;3449;48.728;8.968;2023-06-01T08:25:16;23.80;99.90
6822;DHT22;3449;48.728;8.968;2023-06-01T08:27:43;23.90;99.90
6822;DHT22;3449;48.728;8.968;2023-06-01T08:30:10;24.00;99.90
6822;DHT22;3449;48.728;8.968;2023-06-01T08:32:37;24.10;99.90
6822;DHT22;3449;48.728;8.968;2023-06-01T08:35:06;24.40;99.90
6822;DHT22;3449;48.728;8.968;2023-06-01T08:37:35;24.40;99.90
6822;DHT22;3449;48.728;8.968;2023-06-01T08:40:02;24.30;99.90
6822;DHT22;3449;48.728;8.968;2023-06-01T08:42:38;24.40;99.90
6822;DHT22;3449;48.728;8.968;2023-06-01T08:45:06;24.20;99.90
6822;DHT22;3449;48.728;8.968;2023-06-01T08:47:36;24.40;99.90
6822;DHT22;3449;48.728;8.968;2023-06-01T08:50:04;24.70;99.90
6822;DHT22;3449;48.728;8.968;2023-06-01T08:52:34;24.80;99.90
6822;DHT22;3449;48.728;8.968;2023-06-01T08:55:02;25.00;99.90
6822;DHT22;3449;48.728;8.968;2023-06-01T08:57:29;25.00;99.90
6822;DHT22;3449;48.728;8.968;2023-06-01T08:59:56;24.80;99.90
6822;DHT22;3449;48.728;8.968;2023-06-01T09:02:24;25.00;99.90
6822;DHT22;3449;48.728;8.968;2023-06-01T09:04:52;24.70;99.90
6822;DHT22;3449;48.728;8.968;2023-06-01T09:07:20;24.90;99.90
6822;DHT22;3449;48.728;8.968;2023-06-01T09:09:48;24.80;99.90
6822;DHT22;3449;48.728;8.968;2023-06-01T09:12:21;25.00;99.90
6822;DHT22;3449;48.728;8.968;2023-06-01T09:14:49;25.30;99.90
6822;DHT22;3449;48.728;8.968;2023-06-01T09:17:21;25.50;99.90
6822;DHT22;3449;48.728;8.968;2023-06-01T09:19:52;25.40;99.90
6822;DHT22;3449;48.728;8.968;2023-06-01T09:22:20;25.40;99.90
6822;DHT22;3449;48.728;8.968;2023-06-01T09:24:56;25.30;99.90
6822;DHT22;3449;48.728;8.968;2023-06-01T09:27:24;25.60;99.90
6822;DHT22;3449;48.728;8.968;2023-06-01T09:29:53;25.90;99.90
6822;DHT22;3449;48.728;8.968;2023-06-01T09:32:20;26.20;99.90
6822;DHT22;3449;48.728;8.968;2023-06-01T09:34:47;26.50;99.90
6822;DHT22;3449;48.728;8.968;2023-06-01T09:37:14;26.30;99.90
6822;DHT22;3449;48.728;8.968;2023-06-01T09:39:42;26.10;99.90
6822;DHT22;3449;48.728;8.968;2023-06-01T09:42:11;25.50;99.90
6822;DHT22;3449;48.728;8.968;2023-06-01T09:44:39;25.20;99.90
6822;DHT22;3449;48.728;8.968;2023-06-01T09:47:08;25.60;99.90
6822;DHT22;3449;48.728;8.968;2023-06-01T09:49:37;26.00;99.90
6822;DHT22;3449;48.728;8.968;2023-06-01T09:52:10;26.50;99.90
6822;DHT22;3449;48.728;8.968;2023-06-01T09:54:41;27.00;99.90
6822;DHT22;3449;48.728;8.968;2023-06-01T09:57:08;26.70;99.90
6822;DHT22;3449;48.728;8.968;2023-06-01T09:59:42;26.10;99.90
6822;DHT22;3449;48.728;8.968;2023-06-01T10:02:13;26.00;99.90
6822;DHT22;3449;48.728;8.968;2023-06-01T10:04:42;26.20;99.90
6822;DHT22;3449;48.728;8.968;2023-06-01T10:07:09;26.10;99.90
6822;DHT22;3449;48.728;8.968;2023-06-01T10:09:41;26.30;99.90
6822;DHT22;3449;48.728;8.968;2023-06-01T10:12:08;26.50;99.90
6822;DHT22;3449;48.728;8.968;2023-06-01T10:14:36;26.90;99.90
6822;DHT22;3449;48.728;8.968;2023-06-01T10:17:06;27.10;99.90
6822;DHT22;3449;48.728;8.968;2023-06-01T10:19:36;27.00;99.90
6822;DHT22;3449;48.728;8.968;2023-06-01T10:22:04;26.50;99.90
6822;DHT22;3449;48.728;8.968;2023-06-01T10:24:31;26.50;99.90
6822;DHT22;3449;48.728;8.968;2023-06-01T10:27:04;26.60;99.90
6822;DHT22;3449;48.728;8.968;2023-06-01T10:29:32;27.00;99.90
6822;DHT22;3449;48.728;8.968;2023-06-01T10:31:59;26.80;99.90
6822;DHT22;3449;48.728;8.968;2023-06-01T10:34:46;26.60;99.90
6822;DHT22;3449;48.728;8.968;2023-06-01T10:37:15;26.80;99.90
6822;DHT22;3449;48.728;8.968;2023-06-01T10:39:42;27.50;99.90
6822;DHT22;3449;48.728;8.968;2023-06-01T10:42:35;26.70;99.90
6822;DHT22;3449;48.728;8.968;2023-06-01T10:45:04;26.30;99.90
6822;DHT22;3449;48.728;8.968;2023-06-01T10:47:45;26.90;99.90
6822;DHT22;3449;48.728;8.968;2023-06-01T10:50:18;27.20;99.90
6822;DHT22;3449;48.728;8.968;2023-06-01T10:52:45;27.60;99.90
6822;DHT22;3449;48.728;8.968;2023-06-01T10:55:29;27.90;99.90
6822;DHT22;3449;48.728;8.968;2023-06-01T10:58:20;27.10;99.90
6822;DHT22;3449;48.728;8.968;2023-06-01T11:00:54;27.70;99.90
6822;DHT22;3449;48.728;8.968;2023-06-01T11:03:44;27.70;99.90
6822;DHT22;3449;48.728;8.968;2023-06-01T11:06:28;27.80;99.90
6822;DHT22;3449;48.728;8.968;2023-06-01T11:08:58;27.90;99.90
6822;DHT22;3449;48.728;8.968;2023-06-01T11:11:58;28.20;99.90
6822;DHT22;3449;48.728;8.968;2023-06-01T11:14:26;28.50;99.90
6822;DHT22;3449;48.728;8.968;2023-06-01T11:17:27;28.70;99.90
6822;DHT22;3449;48.728;8.968;2023-06-01T11:19:59;28.50;99.90
6822;DHT22;3449;48.728;8.968;2023-06-01T11:22:36;28.20;99.90
6822;DHT22;3449;48.728;8.968;2023-06-01T11:25:05;28.20;99.90
6822;DHT22;3449;48.728;8.968;2023-06-01T11:27:33;28.50;99.90
6822;DHT22;3449;48.728;8.968;2023-06-01T11:30:02;28.70;99.90
6822;DHT22;3449;48.728;8.968;2023-06-01T11:32:30;28.10;99.90
6822;DHT22;3449;48.728;8.968;2023-06-01T11:34:59;28.00;99.90
6822;DHT22;3449;48.728;8.968;2023-06-01T11:37:26;28.20;99.90
6822;DHT22;3449;48.728;8.968;2023-06-01T11:40:04;28.60;99.90
6822;DHT22;3449;48.728;8.968;2023-06-01T11:42:35;29.30;99.90
6822;DHT22;3449;48.728;8.968;2023-06-01T11:45:02;29.10;99.90
6822;DHT22;3449;48.728;8.968;2023-06-01T11:47:30;29.30;99.90
6822;DHT22;3449;48.728;8.968;2023-06-01T11:49:57;29.70;99.90
6822;DHT22;3449;48.728;8.968;2023-06-01T11:52:24;29.60;99.90
6822;DHT22;3449;48.728;8.968;2023-06-01T11:54:51;29.60;99.90
6822;DHT22;3449;48.728;8.968;2023-06-01T11:57:20;29.40;99.90
6822;DHT22;3449;48.728;8.968;2023-06-01T11:59:48;29.30;99.90
6822;DHT22;3449;48.728;8.968;2023-06-01T12:02:17;29.10;99.90
6822;DHT22;3449;48.728;8.968;2023-06-01T12:04:54;29.20;99.90
6822;DHT22;3449;48.728;8.968;2023-06-01T12:07:22;29.30;99.90
6822;DHT22;3449;48.728;8.968;2023-06-01T12:09:49;29.50;99.90
6822;DHT22;3449;48.728;8.968;2023-06-01T12:12:17;28.10;99.90
6822;DHT22;3449;48.728;8.968;2023-06-01T12:14:45;27.60;99.90
6822;DHT22;3449;48.728;8.968;2023-06-01T12:17:12;27.80;99.90
6822;DHT22;3449;48.728;8.968;2023-06-01T12:19:44;27.90;99.90
6822;DHT22;3449;48.728;8.968;2023-06-01T12:22:12;28.60;99.90
6822;DHT22;3449;48.728;8.968;2023-06-01T12:24:41;28.90;99.90
6822;DHT22;3449;48.728;8.968;2023-06-01T12:27:13;29.20;99.90
6822;DHT22;3449;48.728;8.968;2023-06-01T12:29:42;29.30;99.40
6822;DHT22;3449;48.728;8.968;2023-06-01T12:32:12;29.20;99.10
6822;DHT22;3449;48.728;8.968;2023-06-01T12:34:41;29.80;99.80
6822;DHT22;3449;48.728;8.968;2023-06-01T12:37:16;29.80;99.00
6822;DHT22;3449;48.728;8.968;2023-06-01T12:39:50;29.90;96.70
6822;DHT22;3449;48.728;8.968;2023-06-01T12:42:17;29.80;96.70
6822;DHT22;3449;48.728;8.968;2023-06-01T12:44:44;30.20;96.80
6822;DHT22;3449;48.728;8.968;2023-06-01T12:47:14;30.00;96.70
6822;DHT22;3449;48.728;8.968;2023-06-01T12:49:40;29.80;95.70
6822;DHT22;3449;48.728;8.968;2023-06-01T12:52:27;29.60;95.80
6822;DHT22;3449;48.728;8.968;2023-06-01T12:54:54;29.40;95.00
6822;DHT22;3449;48.728;8.968;2023-06-01T12:57:21;29.50;94.60
6822;DHT22;3449;48.728;8.968;2023-06-01T12:59:48;29.30;94.10
6822;DHT22;3449;48.728;8.968;2023-06-01T13:02:16;28.60;95.30
6822;DHT22;3449;48.728;8.968;2023-06-01T13:04:43;28.60;94.10
6822;DHT22;3449;48.728;8.968;2023-06-01T13:07:10;28.50;95.40
6822;DHT22;3449;48.728;8.968;2023-06-01T13:09:37;28.80;95.40
6822;DHT22;3449;48.728;8.968;2023-06-01T13:12:05;29.00;95.00
6822;DHT22;3449;48.728;8.968;2023-06-01T13:14:32;28.90;93.40
6822;DHT22;3449;48.728;8.968;2023-06-01T13:16:59;29.10;94.30
6822;DHT22;3449;48.728;8.968;2023-06-01T13:19:27;29.50;94.00
6822;DHT22;3449;48.728;8.968;2023-06-01T13:21:54;29.80;93.60
6822;DHT22;3449;48.728;8.968;2023-06-01T13:24:21;30.20;93.70
6822;DHT22;3449;48.728;8.968;2023-06-01T13:26:48;30.00;92.40
6822;DHT22;3449;48.728;8.968;2023-06-01T13:29:15;30.30;93.70
6822;DHT22;3449;48.728;8.968;2023-06-01T13:31:43;30.40;93.80
6822;DHT22;3449;48.728;8.968;2023-06-01T13:34:10;29.90;93.40
6822;DHT22;3449;48.728;8.968;2023-06-01T13:36:38;29.80;93.80
6822;DHT22;3449;48.728;8.968;2023-06-01T13:39:05;29.50;93.40
6822;DHT22;3449;48.728;8.968;2023-06-01T13:41:32;29.60;93.90
6822;DHT22;3449;48.728;8.968;2023-06-01T13:43:59;30.00;94.70
6822;DHT22;3449;48.728;8.968;2023-06-01T13:46:25;30.10;93.40
6822;DHT22;3449;48.728;8.968;2023-06-01T13:48:52;30.00;93.50
6822;DHT22;3449;48.728;8.968;2023-06-01T13:51:19;30.10;93.60
6822;DHT22;3449;48.728;8.968;2023-06-01T13:53:49;29.80;93.40
6822;DHT22;3449;48.728;8.968;2023-06-01T13:56:16;30.10;93.10
6822;DHT22;3449;48.728;8.968;2023-06-01T13:58:43;29.70;93.00
6822;DHT22;3449;48.728;8.968;2023-06-01T14:01:10;29.80;93.50
6822;DHT22;3449;48.728;8.968;2023-06-01T14:03:37;29.80;94.00
6822;DHT22;3449;48.728;8.968;2023-06-01T14:06:04;30.00;92.90
6822;DHT22;3449;48.728;8.968;2023-06-01T14:08:31;30.10;93.10
6822;DHT22;3449;48.728;8.968;2023-06-01T14:10:59;30.00;92.70
6822;DHT22;3449;48.728;8.968;2023-06-01T14:13:26;30.10;91.90
6822;DHT22;3449;48.728;8.968;2023-06-01T14:15:53;30.20;93.30
6822;DHT22;3449;48.728;8.968;2023-06-01T14:18:20;30.30;92.50
6822;DHT22;3449;48.728;8.968;2023-06-01T14:20:47;30.10;92.40
6822;DHT22;3449;48.728;8.968;2023-06-01T14:23:14;30.00;92.10
6822;DHT22;3449;48.728;8.968;2023-06-01T14:25:41;29.70;91.20
6822;DHT22;3449;48.728;8.968;2023-06-01T14:28:09;29.50;92.70
6822;DHT22;3449;48.728;8.968;2023-06-01T14:30:36;29.60;91.90
6822;DHT22;3449;48.728;8.968;2023-06-01T14:33:03;29.80;92.40
6822;DHT22;3449;48.728;8.968;2023-06-01T14:35:29;29.80;91.40
6822;DHT22;3449;48.728;8.968;2023-06-01T14:37:58;29.70;91.90
6822;DHT22;3449;48.728;8.968;2023-06-01T14:40:25;29.80;91.90
6822;DHT22;3449;48.728;8.968;2023-06-01T14:42:52;29.30;91.40
6822;DHT22;3449;48.728;8.968;2023-06-01T14:45:20;29.80;92.40
6822;DHT22;3449;48.728;8.968;2023-06-01T14:47:48;29.80;91.60
6822;DHT22;3449;48.728;8.968;2023-06-01T14:50:16;29.80;91.40
6822;DHT22;3449;48.728;8.968;2023-06-01T14:52:43;29.60;91.40
6822;DHT22;3449;48.728;8.968;2023-06-01T14:55:10;29.70;90.20
6822;DHT22;3449;48.728;8.968;2023-06-01T14:57:37;29.70;90.80
6822;DHT22;3449;48.728;8.968;2023-06-01T15:00:04;29.90;88.40
6822;DHT22;3449;48.728;8.968;2023-06-01T15:02:33;29.80;88.30
6822;DHT22;3449;48.728;8.968;2023-06-01T15:05:00;29.90;87.80
6822;DHT22;3449;48.728;8.968;2023-06-01T15:07:27;29.70;87.30
6822;DHT22;3449;48.728;8.968;2023-06-01T15:09:54;29.70;88.80
6822;DHT22;3449;48.728;8.968;2023-06-01T15:12:21;29.60;85.70
6822;DHT22;3449;48.728;8.968;2023-06-01T15:14:48;29.80;86.40
6822;DHT22;3449;48.728;8.968;2023-06-01T15:17:16;29.80;85.70
6822;DHT22;3449;48.728;8.968;2023-06-01T15:19:44;30.00;87.20
6822;DHT22;3449;48.728;8.968;2023-06-01T15:22:12;29.30;84.80
6822;DHT22;3449;48.728;8.968;2023-06-01T15:24:38;28.90;84.60
6822;DHT22;3449;48.728;8.968;2023-06-01T15:27:06;28.70;84.00
6822;DHT22;3449;48.728;8.968;2023-06-01T15:29:33;28.60;85.10
6822;DHT22;3449;48.728;8.968;2023-06-01T15:32:01;28.90;86.80
6822;DHT22;3449;48.728;8.968;2023-06-01T15:34:28;29.10;86.50
6822;DHT22;3449;48.728;8.968;2023-06-01T15:36:56;29.30;88.10
6822;DHT22;3449;48.728;8.968;2023-06-01T15:39:23;29.40;84.00
6822;DHT22;3449;48.728;8.968;2023-06-01T15:41:50;29.00;82.70
6822;DHT22;3449;48.728;8.968;2023-06-01T15:44:17;28.70;83.90
6822;DHT22;3449;48.728;8.968;2023-06-01T15:46:44;28.80;84.30
6822;DHT22;3449;48.728;8.968;2023-06-01T15:49:12;28.80;83.80
6822;DHT22;3449;48.728;8.968;2023-06-01T15:51:39;28.70;83.60
6822;DHT22;3449;48.728;8.968;2023-06-01T15:54:07;28.80;80.60
6822;DHT22;3449;48.728;8.968;2023-06-01T15:56:34;28.60;80.70
6822;DHT22;3449;48.728;8.968;2023-06-01T15:59:01;28.50;80.30
6822;DHT22;3449;48.728;8.968;2023-06-01T16:01:27;28.40;81.70
6822;DHT22;3449;48.728;8.968;2023-06-01T16:03:55;28.40;81.70
6822;DHT22;3449;48.728;8.968;2023-06-01T16:06:22;28.50;83.30
6822;DHT22;3449;48.728;8.968;2023-06-01T16:08:48;28.80;84.80
6822;DHT22;3449;48.728;8.968;2023-06-01T16:11:17;28.70;85.30